Terminal Aerodrome Forecast
Issued by NWS Atlanta, GA

Home | Current Version | Previous Version | Text Only | Print | Product List | Glossary On
Versions: 1 2 3 4 5 6 7 8 9 10 11 12 13 14 15 16 17 18 19 20 21 22 23 24 25 26 27 28 29 30 31 32 33 34 35 36 37 38 39 40 41 42 43 44 45
673
FTUS42 KFFC 220759 AAA
TAFATL
TAF AMD
KATL 220759Z 2208/2312 21006KT 5SM -RA BR BKN006 BKN015
      TEMPO 2208/2210 2SM TSRA OVC006CB
     FM221000 20005KT 4SM TSRA BR BKN005CB
     FM221500 20010KT P6SM VCSH BKN015 PROB30 2219/2223 VRB15G30KT
      3SM TSRA BKN009CB
     FM230000 23012KT P6SM BKN030 BKN150
     FM230300 24012KT 5SM -RA BR BKN012=

USA.gov is the U.S. government's official web portal to all federal, state and local government web resources and services.